Time;durP1;ratioP1;P1;durP2;ratioP2;P2;SDS_P1;SDS_P2;PMS_P1;PMS_P2;Temp;Humidity;BMP_temperature;BMP_pressure;BME280_temperature;BME280_humidity;BME280_pressure;Samples;Min_cycle;Max_cycle;Signal;HPM_P1;HPM_P2
2022/08/07 00:00:28;;;;;;;15.98;10.40;;;;;;;;;;5026859;28;20033;-58
2022/08/07 00:02:56;;;;;;;19.10;12.43;;;;;;;;;;5020548;28;20033;-58
2022/08/07 00:05:23;;;;;;;12.88;9.95;;;;;;;;;;5023803;28;20116;-58
2022/08/07 00:07:48;;;;;;;11.90;9.18;;;;;;;;;;5021316;28;20034;-58
2022/08/07 00:10:14;;;;;;;12.30;9.02;;;;;;;;;;5024189;28;20585;-58
2022/08/07 00:12:40;;;;;;;16.00;10.20;;;;;;;;;;5024159;28;20386;-58
2022/08/07 00:15:06;;;;;;;16.50;9.38;;;;;;;;;;5021123;28;20075;-57
2022/08/07 00:17:31;;;;;;;10.73;7.97;;;;;;;;;;5020450;28;20030;-58
2022/08/07 00:19:57;;;;;;;11.63;8.32;;;;;;;;;;5030544;28;20595;-58
2022/08/07 00:22:22;;;;;;;11.88;8.57;;;;;;;;;;5023607;28;20041;-58
2022/08/07 00:24:48;;;;;;;12.77;8.60;;;;;;;;;;5031637;28;20029;-58
2022/08/07 00:27:13;;;;;;;31.00;17.85;;;;;;;;;;5029916;28;20033;-58
2022/08/07 00:29:38;;;;;;;25.15;14.10;;;;;;;;;;5029933;28;20407;-58
2022/08/07 00:32:05;;;;;;;24.50;13.68;;;;;;;;;;5028819;28;20116;-58
2022/08/07 00:34:31;;;;;;;14.45;9.40;;;;;;;;;;5030013;28;20029;-58
2022/08/07 00:36:56;;;;;;;12.23;8.55;;;;;;;;;;5028790;28;20014;-58
2022/08/07 00:39:21;;;;;;;13.68;8.85;;;;;;;;;;5027005;28;20029;-58
2022/08/07 00:41:52;;;;;;;17.92;10.00;;;;;;;;;;5027658;28;20027;-58
2022/08/07 00:44:18;;;;;;;20.88;13.85;;;;;;;;;;5028606;28;20465;-58
2022/08/07 00:46:43;;;;;;;16.20;10.80;;;;;;;;;;5026706;28;20029;-58
2022/08/07 00:49:09;;;;;;;15.15;9.75;;;;;;;;;;5023237;28;20076;-57
2022/08/07 00:51:35;;;;;;;10.20;7.22;;;;;;;;;;5026399;28;20507;-58
2022/08/07 00:54:00;;;;;;;10.98;8.32;;;;;;;;;;5029263;28;20025;-58
2022/08/07 00:56:27;;;;;;;12.27;7.32;;;;;;;;;;5026031;28;20438;-58
2022/08/07 00:58:53;;;;;;;8.90;5.97;;;;;;;;;;5027313;28;20030;-58
2022/08/07 01:01:21;;;;;;;15.65;9.15;;;;;;;;;;5027050;28;20030;-59
2022/08/07 01:03:48;;;;;;;10.95;6.90;;;;;;;;;;5025297;28;20063;-60
2022/08/07 01:06:14;;;;;;;10.85;6.00;;;;;;;;;;5028953;28;20026;-60
2022/08/07 01:08:40;;;;;;;18.40;10.43;;;;;;;;;;5023524;28;20026;-60
2022/08/07 01:11:05;;;;;;;18.95;8.73;;;;;;;;;;5030519;28;20026;-60
2022/08/07 01:13:31;;;;;;;8.98;6.75;;;;;;;;;;5025026;28;20420;-60
2022/08/07 01:15:58;;;;;;;8.25;5.80;;;;;;;;;;5027616;28;20028;-60
2022/08/07 01:18:23;;;;;;;11.38;7.70;;;;;;;;;;5020317;28;20474;-60
2022/08/07 01:21:09;;;;;;;8.30;6.05;;;;;;;;;;5030630;28;20017;-60
2022/08/07 01:23:35;;;;;;;7.03;5.25;;;;;;;;;;5027569;28;20048;-60
2022/08/07 01:26:02;;;;;;;9.70;6.05;;;;;;;;;;5027496;28;20487;-59
2022/08/07 01:28:28;;;;;;;6.88;5.30;;;;;;;;;;5026526;28;20301;-59
2022/08/07 01:30:55;;;;;;;17.02;9.15;;;;;;;;;;5028384;28;20037;-60
2022/08/07 01:33:20;;;;;;;25.40;15.52;;;;;;;;;;5028639;28;20033;-60
2022/08/07 01:35:46;;;;;;;16.10;9.60;;;;;;;;;;5028222;28;20079;-59
2022/08/07 01:38:12;;;;;;;8.60;5.15;;;;;;;;;;5025371;28;20064;-59
2022/08/07 01:40:39;;;;;;;5.00;4.50;;;;;;;;;;5027345;28;20056;-58
2022/08/07 01:43:05;;;;;;;6.38;4.70;;;;;;;;;;5027419;28;20156;-58
2022/08/07 01:45:32;;;;;;;6.50;4.65;;;;;;;;;;5027182;28;20045;-59
2022/08/07 01:48:01;;;;;;;7.70;5.35;;;;;;;;;;5022343;28;20108;-59
2022/08/07 01:50:29;;;;;;;8.02;5.38;;;;;;;;;;5027395;28;20046;-59
2022/08/07 01:52:56;;;;;;;6.18;4.60;;;;;;;;;;5025452;28;20068;-59
2022/08/07 01:55:43;;;;;;;9.95;4.97;;;;;;;;;;5029644;28;20501;-59
2022/08/07 01:58:11;;;;;;;6.60;4.30;;;;;;;;;;5026747;28;20029;-59
2022/08/07 02:00:37;;;;;;;6.80;4.80;;;;;;;;;;5018937;28;20120;-59
2022/08/07 02:03:09;;;;;;;7.57;5.10;;;;;;;;;;5022817;28;20029;-60
2022/08/07 02:05:48;;;;;;;6.63;4.50;;;;;;;;;;5024708;28;20540;-59
2022/08/07 02:08:16;;;;;;;5.20;4.35;;;;;;;;;;5023259;28;20053;-59
2022/08/07 02:10:43;;;;;;;11.10;4.97;;;;;;;;;;5022362;28;20039;-59
2022/08/07 02:13:10;;;;;;;7.43;4.80;;;;;;;;;;5022148;28;20029;-59
2022/08/07 02:15:38;;;;;;;5.65;4.60;;;;;;;;;;5021337;28;20034;-60
2022/08/07 02:18:05;;;;;;;7.18;4.55;;;;;;;;;;5023667;28;20402;-60
2022/08/07 02:20:32;;;;;;;8.93;4.50;;;;;;;;;;5029759;28;20032;-59
2022/08/07 02:23:03;;;;;;;7.28;4.78;;;;;;;;;;5027102;28;20414;-59
2022/08/07 02:25:31;;;;;;;5.43;4.07;;;;;;;;;;5028139;28;20431;-59
2022/08/07 02:27:59;;;;;;;6.47;4.35;;;;;;;;;;5028794;28;20400;-59
2022/08/07 02:30:26;;;;;;;5.07;4.40;;;;;;;;;;5028037;28;20018;-60
2022/08/07 02:32:52;;;;;;;6.65;5.00;;;;;;;;;;5026667;28;20113;-59
2022/08/07 02:35:18;;;;;;;5.88;4.63;;;;;;;;;;5025291;28;20030;-58
2022/08/07 02:37:46;;;;;;;6.00;4.32;;;;;;;;;;5028579;28;20021;-59
2022/08/07 02:40:12;;;;;;;4.82;4.20;;;;;;;;;;5025491;28;20040;-59
2022/08/07 02:42:39;;;;;;;6.47;4.60;;;;;;;;;;5027533;28;20035;-59
2022/08/07 02:45:07;;;;;;;4.85;4.20;;;;;;;;;;5026001;28;20075;-59
2022/08/07 02:47:33;;;;;;;8.25;4.90;;;;;;;;;;5024581;28;20029;-59
2022/08/07 02:49:58;;;;;;;7.53;4.82;;;;;;;;;;5025446;28;20036;-59
2022/08/07 02:53:00;;;;;;;5.70;4.50;;;;;;;;;;5023326;28;20056;-59
2022/08/07 02:55:29;;;;;;;6.20;4.95;;;;;;;;;;5005954;28;20048;-58
2022/08/07 02:58:01;;;;;;;8.52;5.32;;;;;;;;;;5025157;28;20029;-58
2022/08/07 03:00:28;;;;;;;7.53;5.50;;;;;;;;;;5022069;28;20033;-59
2022/08/07 03:02:54;;;;;;;9.90;5.18;;;;;;;;;;5022550;28;20029;-58
2022/08/07 03:05:19;;;;;;;5.60;5.00;;;;;;;;;;5020410;28;20053;-58
2022/08/07 03:07:46;;;;;;;5.72;4.80;;;;;;;;;;5022850;28;20030;-58
2022/08/07 03:10:12;;;;;;;9.02;5.30;;;;;;;;;;5021900;28;20562;-58
2022/08/07 03:12:39;;;;;;;7.00;5.13;;;;;;;;;;5023055;28;20393;-58
2022/08/07 03:15:06;;;;;;;6.82;4.97;;;;;;;;;;5023649;28;20503;-58
2022/08/07 03:17:32;;;;;;;9.77;5.65;;;;;;;;;;5028618;28;20548;-58
2022/08/07 03:19:58;;;;;;;5.85;5.10;;;;;;;;;;5028758;28;20032;-57
2022/08/07 03:22:24;;;;;;;7.18;5.57;;;;;;;;;;5026309;28;20033;-58
2022/08/07 03:24:49;;;;;;;7.07;5.55;;;;;;;;;;5027759;28;20044;-58
2022/08/07 03:27:16;;;;;;;8.32;5.57;;;;;;;;;;5026851;28;20026;-58
2022/08/07 03:29:49;;;;;;;6.68;5.65;;;;;;;;;;5029064;28;20029;-58
2022/08/07 03:32:17;;;;;;;9.30;5.93;;;;;;;;;;5022868;28;20116;-58
2022/08/07 03:34:47;;;;;;;9.35;5.97;;;;;;;;;;5026295;28;20467;-58
2022/08/07 03:37:14;;;;;;;8.68;5.95;;;;;;;;;;5026271;28;20031;-59
2022/08/07 03:39:40;;;;;;;10.60;6.07;;;;;;;;;;5025197;28;20049;-60
2022/08/07 03:42:06;;;;;;;6.30;5.68;;;;;;;;;;5024825;28;20030;-59
2022/08/07 03:44:36;;;;;;;9.18;5.90;;;;;;;;;;5024402;28;20075;-59
2022/08/07 03:47:03;;;;;;;11.55;6.18;;;;;;;;;;5024468;28;20021;-60
2022/08/07 03:49:29;;;;;;;7.95;5.95;;;;;;;;;;5023736;28;20045;-60
2022/08/07 03:51:55;;;;;;;7.85;6.22;;;;;;;;;;5024703;28;20495;-59
2022/08/07 03:54:21;;;;;;;7.28;5.80;;;;;;;;;;5024481;28;20082;-60
2022/08/07 03:56:48;;;;;;;8.68;6.05;;;;;;;;;;5022482;28;20029;-59
2022/08/07 03:59:14;;;;;;;8.80;6.13;;;;;;;;;;5026005;28;20025;-59
2022/08/07 04:01:41;;;;;;;8.27;6.38;;;;;;;;;;5024162;28;20025;-59
2022/08/07 04:04:07;;;;;;;8.98;6.50;;;;;;;;;;5026867;28;20029;-59
2022/08/07 04:06:34;;;;;;;10.85;6.50;;;;;;;;;;5025176;28;20052;-59
2022/08/07 04:09:01;;;;;;;8.93;6.13;;;;;;;;;;5022918;28;20486;-58
2022/08/07 04:11:27;;;;;;;8.20;5.80;;;;;;;;;;5024099;28;20048;-59
2022/08/07 04:13:54;;;;;;;9.07;6.68;;;;;;;;;;5022486;28;20037;-59
2022/08/07 04:16:19;;;;;;;8.00;6.07;;;;;;;;;;5031213;28;20448;-59
2022/08/07 04:18:45;;;;;;;9.75;6.55;;;;;;;;;;5030274;28;20503;-58
2022/08/07 04:21:11;;;;;;;7.85;5.82;;;;;;;;;;5028173;28;20061;-58
2022/08/07 04:23:37;;;;;;;8.70;6.75;;;;;;;;;;5031255;28;20101;-59
2022/08/07 04:26:05;;;;;;;7.75;6.22;;;;;;;;;;5030610;28;20498;-59
2022/08/07 04:28:30;;;;;;;9.18;6.38;;;;;;;;;;5029887;28;20053;-59
2022/08/07 04:30:56;;;;;;;9.63;6.70;;;;;;;;;;5027245;28;20059;-59
2022/08/07 04:33:23;;;;;;;8.05;6.45;;;;;;;;;;5026370;28;20049;-59
2022/08/07 04:35:49;;;;;;;11.25;6.53;;;;;;;;;;5028981;28;20124;-59
2022/08/07 04:38:14;;;;;;;8.13;6.65;;;;;;;;;;5028494;28;20100;-59
2022/08/07 04:40:42;;;;;;;12.20;6.88;;;;;;;;;;5028263;28;20116;-59
2022/08/07 04:43:08;;;;;;;10.38;7.00;;;;;;;;;;5024808;28;20029;-59
2022/08/07 04:45:41;;;;;;;9.43;6.55;;;;;;;;;;5027411;28;20506;-59
2022/08/07 04:48:11;;;;;;;9.32;6.63;;;;;;;;;;5026820;28;20022;-59
2022/08/07 04:51:06;;;;;;;9.32;6.70;;;;;;;;;;5030103;28;20026;-59
2022/08/07 04:53:40;;;;;;;10.00;7.30;;;;;;;;;;5024997;28;20043;-59
2022/08/07 04:56:28;;;;;;;9.32;6.20;;;;;;;;;;5031578;28;20025;-59
2022/08/07 04:59:00;;;;;;;8.65;6.75;;;;;;;;;;5027475;28;20113;-59
2022/08/07 05:01:41;;;;;;;8.55;6.88;;;;;;;;;;5021691;28;20040;-59
2022/08/07 05:04:13;;;;;;;11.18;7.35;;;;;;;;;;5024572;28;20478;-62
2022/08/07 05:06:52;;;;;;;9.43;7.60;;;;;;;;;;5021577;28;20112;-61
2022/08/07 05:09:30;;;;;;;8.75;7.20;;;;;;;;;;5022495;28;20084;-60
2022/08/07 05:11:59;;;;;;;8.88;6.95;;;;;;;;;;5030535;28;20036;-60
2022/08/07 05:14:32;;;;;;;11.73;7.32;;;;;;;;;;5027229;28;20087;-61
2022/08/07 05:17:01;;;;;;;8.65;6.78;;;;;;;;;;5030832;28;20013;-60
2022/08/07 05:19:33;;;;;;;10.95;7.70;;;;;;;;;;5030473;28;20021;-59
2022/08/07 05:22:00;;;;;;;11.45;7.13;;;;;;;;;;5029291;28;20102;-61
2022/08/07 05:24:28;;;;;;;10.63;6.60;;;;;;;;;;5029256;28;20399;-61
2022/08/07 05:26:56;;;;;;;12.10;6.75;;;;;;;;;;5029588;28;20128;-60
2022/08/07 05:29:22;;;;;;;9.25;6.63;;;;;;;;;;5028617;28;20514;-60
2022/08/07 05:31:49;;;;;;;9.90;7.70;;;;;;;;;;5029019;28;20403;-61
2022/08/07 05:34:16;;;;;;;12.07;7.95;;;;;;;;;;5026041;28;20033;-59
2022/08/07 05:36:50;;;;;;;11.02;7.40;;;;;;;;;;5027971;28;20486;-61
2022/08/07 05:39:18;;;;;;;12.13;8.27;;;;;;;;;;5029075;28;20048;-60
2022/08/07 05:41:46;;;;;;;11.05;7.20;;;;;;;;;;5024551;28;20025;-58
2022/08/07 05:44:12;;;;;;;9.80;7.20;;;;;;;;;;5024039;28;20044;-61
2022/08/07 05:46:39;;;;;;;10.27;7.25;;;;;;;;;;5026062;28;20025;-61
2022/08/07 05:49:08;;;;;;;9.02;7.50;;;;;;;;;;5028820;28;20033;-61
2022/08/07 05:51:34;;;;;;;8.50;7.47;;;;;;;;;;5023595;28;20034;-61
2022/08/07 05:54:00;;;;;;;9.40;7.47;;;;;;;;;;5026955;28;20026;-59
2022/08/07 05:56:27;;;;;;;9.52;7.30;;;;;;;;;;5022377;28;20480;-61
2022/08/07 05:58:53;;;;;;;10.60;7.07;;;;;;;;;;5029608;28;20510;-61
2022/08/07 06:01:21;;;;;;;9.05;6.80;;;;;;;;;;5021250;28;20491;-59
2022/08/07 06:03:50;;;;;;;10.77;7.25;;;;;;;;;;5025580;28;20042;-60
2022/08/07 06:06:16;;;;;;;12.13;7.65;;;;;;;;;;5021823;28;20033;-60
2022/08/07 06:08:42;;;;;;;10.27;7.50;;;;;;;;;;5020559;28;20025;-62
2022/08/07 06:11:08;;;;;;;9.27;6.78;;;;;;;;;;5027844;28;20526;-61
2022/08/07 06:13:36;;;;;;;9.35;7.50;;;;;;;;;;5020652;28;20033;-60
2022/08/07 06:16:02;;;;;;;9.68;7.18;;;;;;;;;;5030016;28;20021;-61
2022/08/07 06:18:30;;;;;;;10.20;7.15;;;;;;;;;;5026816;28;20108;-60
2022/08/07 06:20:58;;;;;;;8.27;6.82;;;;;;;;;;5028464;28;20025;-60
2022/08/07 06:23:23;;;;;;;8.10;6.75;;;;;;;;;;5025934;28;20026;-60
2022/08/07 06:25:49;;;;;;;10.55;7.70;;;;;;;;;;5028930;28;20036;-59
2022/08/07 06:28:15;;;;;;;10.43;7.70;;;;;;;;;;5027210;28;20025;-61
2022/08/07 06:30:41;;;;;;;12.57;7.75;;;;;;;;;;5024620;28;20026;-58
2022/08/07 06:33:07;;;;;;;8.70;7.10;;;;;;;;;;5025258;28;20083;-61
2022/08/07 06:35:36;;;;;;;9.23;7.88;;;;;;;;;;5028544;28;20112;-60
2022/08/07 06:38:03;;;;;;;10.75;7.65;;;;;;;;;;5024777;28;20048;-60
2022/08/07 06:40:33;;;;;;;9.57;7.70;;;;;;;;;;5025019;28;20450;-59
2022/08/07 06:43:01;;;;;;;12.30;8.45;;;;;;;;;;5023328;28;20037;-58
2022/08/07 06:45:28;;;;;;;11.20;7.78;;;;;;;;;;5024688;28;20141;-60
2022/08/07 06:47:54;;;;;;;11.15;8.02;;;;;;;;;;5028170;28;20175;-61
2022/08/07 06:50:20;;;;;;;12.43;7.53;;;;;;;;;;5024442;28;20026;-59
2022/08/07 06:52:50;;;;;;;10.82;7.72;;;;;;;;;;5021542;28;20029;-58
2022/08/07 06:55:21;;;;;;;12.13;7.95;;;;;;;;;;5021170;28;20030;-62
2022/08/07 06:57:48;;;;;;;9.85;7.60;;;;;;;;;;5022763;28;20109;-59
2022/08/07 07:00:15;;;;;;;11.40;7.90;;;;;;;;;;5020161;28;20037;-62
2022/08/07 07:02:42;;;;;;;11.50;7.38;;;;;;;;;;5019057;28;20026;-61
2022/08/07 07:05:08;;;;;;;10.48;7.63;;;;;;;;;;5018685;28;20030;-60
2022/08/07 07:07:33;;;;;;;11.43;7.20;;;;;;;;;;5021155;28;20075;-61
2022/08/07 07:09:58;;;;;;;9.13;7.03;;;;;;;;;;5025409;28;20029;-62
2022/08/07 07:12:39;;;;;;;9.27;6.88;;;;;;;;;;5020243;28;20025;-61
2022/08/07 07:15:20;;;;;;;9.27;7.85;;;;;;;;;;5028227;28;20499;-61
2022/08/07 07:17:59;;;;;;;9.00;6.95;;;;;;;;;;5027788;28;20476;-60
2022/08/07 07:20:30;;;;;;;10.77;7.32;;;;;;;;;;5026271;28;20026;-61
2022/08/07 07:22:57;;;;;;;10.07;7.13;;;;;;;;;;5025814;28;20036;-60
2022/08/07 07:25:22;;;;;;;11.30;6.80;;;;;;;;;;5025198;28;20025;-59
2022/08/07 07:28:01;;;;;;;8.00;6.20;;;;;;;;;;5023845;28;20041;-60
2022/08/07 07:30:34;;;;;;;11.23;6.53;;;;;;;;;;5026998;28;20056;-60
2022/08/07 07:33:02;;;;;;;8.27;6.45;;;;;;;;;;5023976;28;20761;-60
2022/08/07 07:35:28;;;;;;;10.25;5.90;;;;;;;;;;5026078;28;20036;-58
2022/08/07 07:37:56;;;;;;;13.75;6.25;;;;;;;;;;5019017;28;20033;-57
2022/08/07 07:40:23;;;;;;;9.32;5.95;;;;;;;;;;5024450;28;20411;-57
2022/08/07 07:42:52;;;;;;;8.02;6.60;;;;;;;;;;5026168;28;20029;-56
2022/08/07 07:45:20;;;;;;;7.78;5.75;;;;;;;;;;5026494;28;20017;-57
2022/08/07 07:47:48;;;;;;;7.65;6.30;;;;;;;;;;5023601;28;20049;-55
2022/08/07 07:50:15;;;;;;;9.40;5.85;;;;;;;;;;5024275;28;20124;-58
2022/08/07 07:52:43;;;;;;;9.35;5.32;;;;;;;;;;5025020;28;20550;-58
2022/08/07 07:55:09;;;;;;;8.20;4.95;;;;;;;;;;5027293;28;20128;-56
2022/08/07 07:57:35;;;;;;;8.35;4.57;;;;;;;;;;5023129;28;20176;-56
2022/08/07 08:00:03;;;;;;;6.40;5.40;;;;;;;;;;5027496;28;20032;-55
2022/08/07 08:02:31;;;;;;;8.60;5.15;;;;;;;;;;5026057;28;20100;-56
2022/08/07 08:04:58;;;;;;;6.80;4.38;;;;;;;;;;5026178;28;20021;-55
2022/08/07 08:07:24;;;;;;;5.95;4.60;;;;;;;;;;5020902;28;20057;-55
2022/08/07 08:09:51;;;;;;;7.03;5.13;;;;;;;;;;5016829;28;20557;-55
2022/08/07 08:12:17;;;;;;;5.82;4.28;;;;;;;;;;5018579;28;20080;-56
2022/08/07 08:14:42;;;;;;;6.22;4.07;;;;;;;;;;5027804;28;20025;-56
2022/08/07 08:17:09;;;;;;;5.90;4.20;;;;;;;;;;5023945;28;20041;-55
2022/08/07 08:19:36;;;;;;;8.18;3.95;;;;;;;;;;5023632;28;20490;-55
2022/08/07 08:27:39;;;;;;;3.55;2.90;;;;;;;;;;5024621;28;20032;-55
2022/08/07 08:30:06;;;;;;;3.60;3.03;;;;;;;;;;5022504;28;20080;-55
2022/08/07 08:32:37;;;;;;;5.00;2.63;;;;;;;;;;5025228;28;20021;-55
2022/08/07 08:35:05;;;;;;;4.10;2.88;;;;;;;;;;5024462;28;20017;-55
2022/08/07 08:37:34;;;;;;;2.60;2.40;;;;;;;;;;5027827;28;20021;-55
2022/08/07 08:40:00;;;;;;;;;;;;;;;;;;5025127;28;20040;-54
2022/08/07 08:42:30;;;;;;;5.45;2.63;;;;;;;;;;5025968;28;21549;-55
2022/08/07 08:45:21;;;;;;;3.60;2.47;;;;;;;;;;5026208;28;20240;-57
2022/08/07 08:48:08;;;;;;;3.20;2.13;;;;;;;;;;5026287;28;20033;-56
2022/08/07 08:50:41;;;;;;;4.53;2.33;;;;;;;;;;5028677;28;20029;-55
2022/08/07 08:53:13;;;;;;;6.78;2.20;;;;;;;;;;5029833;28;20029;-56
2022/08/07 08:55:55;;;;;;;2.63;2.30;;;;;;;;;;5027941;28;20553;-57
2022/08/07 08:59:14;;;;;;;5.60;2.25;;;;;;;;;;5023772;28;20388;-57
2022/08/07 09:02:09;;;;;;;10.38;2.17;;;;;;;;;;4988637;28;20046;-57
2022/08/07 09:05:10;;;;;;;5.93;2.08;;;;;;;;;;5020347;28;20111;-57
2022/08/07 09:07:52;;;;;;;7.80;2.50;;;;;;;;;;4988797;28;20160;-56
2022/08/07 09:10:32;;;;;;;7.93;3.88;;;;;;;;;;5017058;28;20041;-56
2022/08/07 09:13:24;;;;;;;4.03;2.40;;;;;;;;;;5029779;28;20383;-56
2022/08/07 09:15:59;;;;;;;2.60;2.17;;;;;;;;;;5028241;28;20029;-55
2022/08/07 09:18:30;;;;;;;6.57;2.30;;;;;;;;;;5028087;28;20060;-54
2022/08/07 09:21:05;;;;;;;2.45;2.17;;;;;;;;;;5029830;28;20036;-59
2022/08/07 09:24:00;;;;;;;3.83;2.53;;;;;;;;;;5031388;28;20108;-55
2022/08/07 09:26:49;;;;;;;4.68;2.20;;;;;;;;;;5028453;28;20032;-55
2022/08/07 09:29:51;;;;;;;4.18;2.40;;;;;;;;;;5025124;28;20110;-55
2022/08/07 09:32:38;;;;;;;5.78;2.70;;;;;;;;;;5024726;28;20361;-56
2022/08/07 09:35:13;;;;;;;4.97;2.55;;;;;;;;;;5026683;28;20105;-55
2022/08/07 09:38:12;;;;;;;3.80;2.40;;;;;;;;;;5026756;28;20219;-55
2022/08/07 09:40:56;;;;;;;6.18;2.20;;;;;;;;;;5020374;28;20026;-57
2022/08/07 09:43:52;;;;;;;3.03;1.90;;;;;;;;;;5028004;28;20415;-57
2022/08/07 09:46:51;;;;;;;2.72;2.08;;;;;;;;;;5023748;28;20100;-56
2022/08/07 09:49:42;;;;;;;5.68;2.10;;;;;;;;;;5024995;28;20033;-56
2022/08/07 09:52:22;;;;;;;2.50;2.10;;;;;;;;;;5020065;28;20484;-57
2022/08/07 09:55:01;;;;;;;3.80;1.90;;;;;;;;;;5025187;28;20040;-57
2022/08/07 09:57:54;;;;;;;4.07;2.15;;;;;;;;;;5022352;28;20109;-56
2022/08/07 10:00:23;;;;;;;2.83;2.30;;;;;;;;;;5027865;28;20029;-57
2022/08/07 10:03:10;;;;;;;2.40;2.08;;;;;;;;;;5020814;28;20033;-57
2022/08/07 10:05:38;;;;;;;8.43;2.20;;;;;;;;;;5026963;28;20087;-55
2022/08/07 10:08:31;;;;;;;6.60;2.17;;;;;;;;;;5029839;28;20040;-56
2022/08/07 10:11:21;;;;;;;5.13;1.90;;;;;;;;;;5027806;28;20025;-56
2022/08/07 10:14:01;;;;;;;4.78;2.00;;;;;;;;;;5025579;28;20419;-55
2022/08/07 10:16:50;;;;;;;4.22;1.80;;;;;;;;;;5028730;28;20021;-55
2022/08/07 10:19:38;;;;;;;2.78;2.20;;;;;;;;;;5024807;28;20391;-54
2022/08/07 10:22:24;;;;;;;2.15;1.88;;;;;;;;;;5022957;28;20028;-54
2022/08/07 10:25:11;;;;;;;2.03;1.83;;;;;;;;;;5026746;28;20034;-55
2022/08/07 10:28:11;;;;;;;4.65;2.10;;;;;;;;;;5018714;28;20047;-54
2022/08/07 10:31:01;;;;;;;2.55;1.52;;;;;;;;;;5016572;28;20124;-55
2022/08/07 10:34:02;;;;;;;2.10;1.90;;;;;;;;;;5024463;28;20033;-56
2022/08/07 10:36:33;;;;;;;7.22;2.33;;;;;;;;;;5025029;28;20025;-56
2022/08/07 10:39:08;;;;;;;2.15;1.60;;;;;;;;;;5021272;28;20408;-54
2022/08/07 10:41:45;;;;;;;1.92;1.70;;;;;;;;;;5024782;28;20036;-56
2022/08/07 10:44:40;;;;;;;3.78;1.88;;;;;;;;;;5023316;28;20453;-56
2022/08/07 10:47:22;;;;;;;4.97;1.90;;;;;;;;;;5023479;28;20041;-56
2022/08/07 10:50:01;;;;;;;4.57;2.17;;;;;;;;;;5022520;28;20079;-56
2022/08/07 10:52:53;;;;;;;4.13;3.83;;;;;;;;;;5022075;28;20044;-56
2022/08/07 10:55:51;;;;;;;2.45;1.60;;;;;;;;;;5020589;28;20041;-57
2022/08/07 10:58:33;;;;;;;3.83;1.80;;;;;;;;;;5013843;28;20124;-56
2022/08/07 11:01:07;;;;;;;3.28;1.90;;;;;;;;;;5017190;28;20226;-56
2022/08/07 11:03:36;;;;;;;30.88;20.40;;;;;;;;;;5020556;28;20022;-56
2022/08/07 11:06:11;;;;;;;9.32;8.15;;;;;;;;;;5020652;28;20022;-56
2022/08/07 11:08:47;;;;;;;5.75;4.30;;;;;;;;;;5021715;28;20021;-56
2022/08/07 11:11:35;;;;;;;3.42;2.35;;;;;;;;;;5028006;28;20109;-58
2022/08/07 11:14:19;;;;;;;3.47;3.17;;;;;;;;;;5028020;28;20029;-57
2022/08/07 11:16:50;;;;;;;6.80;2.95;;;;;;;;;;5020330;28;20044;-56
2022/08/07 11:19:41;;;;;;;15.30;4.45;;;;;;;;;;5026084;28;20029;-56
2022/08/07 11:22:34;;;;;;;4.78;3.90;;;;;;;;;;5024957;28;20037;-56
2022/08/07 11:25:26;;;;;;;11.30;9.45;;;;;;;;;;5023046;28;20037;-55
2022/08/07 11:28:16;;;;;;;2.65;2.05;;;;;;;;;;5023342;28;20044;-56
2022/08/07 11:30:58;;;;;;;2.85;1.95;;;;;;;;;;5018770;28;20511;-53
2022/08/07 11:33:31;;;;;;;3.72;1.80;;;;;;;;;;5025604;28;20163;-56
2022/08/07 11:36:21;;;;;;;1.92;1.48;;;;;;;;;;5021804;28;20040;-56
2022/08/07 11:39:18;;;;;;;3.78;1.85;;;;;;;;;;5017859;28;20029;-55
2022/08/07 11:42:12;;;;;;;2.60;1.58;;;;;;;;;;5021906;28;20025;-56
2022/08/07 11:44:54;;;;;;;2.42;1.30;;;;;;;;;;5021470;28;20600;-56
2022/08/07 11:47:56;;;;;;;1.83;1.60;;;;;;;;;;5022445;28;20043;-60
2022/08/07 11:50:46;;;;;;;2.65;1.63;;;;;;;;;;5021722;28;20040;-57
2022/08/07 11:53:49;;;;;;;2.13;1.48;;;;;;;;;;5022472;28;20053;-56
2022/08/07 11:56:43;;;;;;;3.78;1.40;;;;;;;;;;5006805;28;20530;-56
2022/08/07 11:59:45;;;;;;;2.10;1.20;;;;;;;;;;5021638;28;20112;-56
2022/08/07 12:02:35;;;;;;;2.47;1.30;;;;;;;;;;5018515;28;20080;-56
2022/08/07 12:05:21;;;;;;;2.58;1.67;;;;;;;;;;5024736;28;20523;-57
2022/08/07 12:08:04;;;;;;;1.73;1.48;;;;;;;;;;5021945;28;20057;-57
2022/08/07 12:10:46;;;;;;;3.63;1.70;;;;;;;;;;5026190;28;20033;-56
2022/08/07 12:13:31;;;;;;;2.10;1.77;;;;;;;;;;5025365;28;20038;-56
2022/08/07 12:16:09;;;;;;;2.30;1.40;;;;;;;;;;5024606;28;20051;-56
2022/08/07 12:19:05;;;;;;;1.40;1.30;;;;;;;;;;5030432;28;20021;-57
2022/08/07 12:21:48;;;;;;;1.98;1.42;;;;;;;;;;5029323;28;20052;-57
2022/08/07 12:25:51;;;;;;;2.80;1.42;;;;;;;;;;5030272;28;20029;-59
2022/08/07 12:27:32;;;;;;;1.60;1.50;;;;;;;;;;5029309;28;20136;-60
2022/08/07 12:30:05;;;;;;;1.55;1.45;;;;;;;;;;5027903;28;20056;-61
2022/08/07 12:32:56;;;;;;;4.80;1.80;;;;;;;;;;5028595;28;20116;-60
2022/08/07 12:35:24;;;;;;;2.25;1.73;;;;;;;;;;5029568;28;20022;-60
2022/08/07 12:37:51;;;;;;;2.40;1.67;;;;;;;;;;5028901;28;20103;-59
2022/08/07 12:40:21;;;;;;;2.90;1.50;;;;;;;;;;5028875;28;20104;-61
2022/08/07 12:42:50;;;;;;;2.25;1.60;;;;;;;;;;5026332;28;20061;-60
2022/08/07 12:45:19;;;;;;;2.13;1.60;;;;;;;;;;5025778;28;20108;-60
2022/08/07 12:47:48;;;;;;;1.60;1.50;;;;;;;;;;5029738;28;20484;-61
2022/08/07 12:50:41;;;;;;;1.60;1.50;;;;;;;;;;5023881;28;20079;-60
2022/08/07 12:53:16;;;;;;;2.47;1.52;;;;;;;;;;5023605;28;20040;-60
2022/08/07 12:56:20;;;;;;;2.60;1.70;;;;;;;;;;5024965;28;20068;-57
2022/08/07 12:58:48;;;;;;;2.92;1.70;;;;;;;;;;5023412;28;20049;-58
2022/08/07 13:01:28;;;;;;;1.70;1.60;;;;;;;;;;5024076;28;20032;-61
2022/08/07 13:03:54;;;;;;;1.50;1.40;;;;;;;;;;5027070;28;20025;-62
2022/08/07 13:06:19;;;;;;;3.75;1.45;;;;;;;;;;5026758;28;20033;-62
2022/08/07 13:09:10;;;;;;;1.50;1.40;;;;;;;;;;5030294;28;20083;-63
2022/08/07 13:11:52;;;;;;;3.88;1.83;;;;;;;;;;5026521;28;20025;-61
2022/08/07 13:14:34;;;;;;;2.63;1.60;;;;;;;;;;5029557;28;20040;-60
2022/08/07 13:17:19;;;;;;;2.10;1.90;;;;;;;;;;5028056;28;20056;-61
2022/08/07 13:19:59;;;;;;;1.50;1.40;;;;;;;;;;5025548;28;20021;-61
2022/08/07 13:22:49;;;;;;;1.73;1.40;;;;;;;;;;5027596;28;20040;-61
2022/08/07 13:25:27;;;;;;;3.63;1.65;;;;;;;;;;5028952;28;20026;-61
2022/08/07 13:27:58;;;;;;;1.58;1.48;;;;;;;;;;5025635;28;20021;-62
2022/08/07 13:30:26;;;;;;;1.88;1.48;;;;;;;;;;5026195;28;20052;-60
2022/08/07 13:33:00;;;;;;;2.07;1.80;;;;;;;;;;5028046;28;20088;-62
2022/08/07 13:35:35;;;;;;;1.88;1.70;;;;;;;;;;5027095;28;20048;-60
2022/08/07 13:38:18;;;;;;;1.92;1.55;;;;;;;;;;5013090;28;20022;-61
2022/08/07 13:41:00;;;;;;;1.90;1.70;;;;;;;;;;5025648;28;20095;-61
2022/08/07 13:43:27;;;;;;;3.17;1.85;;;;;;;;;;5024569;28;20025;-59
2022/08/07 13:45:59;;;;;;;1.50;1.40;;;;;;;;;;5023226;28;20506;-62
2022/08/07 13:48:26;;;;;;;3.15;1.63;;;;;;;;;;5023301;28;20037;-61
2022/08/07 13:50:52;;;;;;;3.57;1.80;;;;;;;;;;5024738;28;20051;-61
2022/08/07 13:53:27;;;;;;;1.90;1.70;;;;;;;;;;5026276;28;20041;-59
2022/08/07 13:55:57;;;;;;;3.33;1.92;;;;;;;;;;5023077;28;20068;-60
2022/08/07 14:01:12;;;;;;;2.30;1.90;;;;;;;;;;5019805;28;20506;-61
2022/08/07 14:03:40;;;;;;;3.17;1.83;;;;;;;;;;5029379;28;20025;-61
2022/08/07 14:06:07;;;;;;;1.98;1.88;;;;;;;;;;5029647;28;20026;-62
2022/08/07 14:08:44;;;;;;;1.88;1.63;;;;;;;;;;5029956;28;20076;-60
2022/08/07 14:11:13;;;;;;;3.33;1.75;;;;;;;;;;5026924;28;20076;-60
2022/08/07 14:13:40;;;;;;;2.83;1.90;;;;;;;;;;5030816;28;20025;-61
2022/08/07 14:16:11;;;;;;;2.67;1.90;;;;;;;;;;5029442;28;20387;-61
2022/08/07 14:18:39;;;;;;;2.88;1.77;;;;;;;;;;5029619;28;20060;-62
2022/08/07 14:21:18;;;;;;;2.53;1.75;;;;;;;;;;5029941;28;20025;-61
2022/08/07 14:23:48;;;;;;;2.38;1.85;;;;;;;;;;5030327;28;20064;-59
2022/08/07 14:26:21;;;;;;;3.17;1.75;;;;;;;;;;5030305;28;20484;-63
2022/08/07 14:28:48;;;;;;;2.30;1.60;;;;;;;;;;5029942;28;20457;-60
2022/08/07 14:31:15;;;;;;;2.65;1.70;;;;;;;;;;5028844;28;20025;-60
2022/08/07 14:33:40;;;;;;;2.60;1.88;;;;;;;;;;5029475;28;20482;-60
2022/08/07 14:36:08;;;;;;;3.45;1.55;;;;;;;;;;5030798;28;20022;-60
2022/08/07 14:38:34;;;;;;;3.17;1.48;;;;;;;;;;5028052;28;20029;-61
2022/08/07 14:41:03;;;;;;;2.20;1.75;;;;;;;;;;5028867;28;20029;-56
2022/08/07 14:43:32;;;;;;;2.08;1.45;;;;;;;;;;5029721;28;20108;-62
2022/08/07 14:45:59;;;;;;;1.70;1.50;;;;;;;;;;5029947;28;20535;-60
2022/08/07 14:48:29;;;;;;;2.78;1.48;;;;;;;;;;5028293;28;20087;-62
2022/08/07 14:50:58;;;;;;;2.15;1.77;;;;;;;;;;5029111;28;20064;-57
2022/08/07 14:53:27;;;;;;;2.90;1.80;;;;;;;;;;5028686;28;20398;-62
2022/08/07 14:55:54;;;;;;;1.73;1.27;;;;;;;;;;5028421;28;20427;-61
2022/08/07 14:58:25;;;;;;;1.42;1.27;;;;;;;;;;5026501;28;20029;-60
2022/08/07 15:00:51;;;;;;;2.03;1.40;;;;;;;;;;5028213;28;20033;-61
2022/08/07 15:03:22;;;;;;;2.38;1.48;;;;;;;;;;5027357;28;20390;-60
2022/08/07 15:05:48;;;;;;;2.72;1.50;;;;;;;;;;5028418;28;20037;-59
2022/08/07 15:08:26;;;;;;;2.35;1.42;;;;;;;;;;5029597;28;20041;-60
2022/08/07 15:10:58;;;;;;;1.58;1.48;;;;;;;;;;5029419;28;20017;-60
2022/08/07 15:13:25;;;;;;;2.55;1.35;;;;;;;;;;5029168;28;20441;-60
2022/08/07 15:15:57;;;;;;;4.10;1.50;;;;;;;;;;5026156;28;20057;-60
2022/08/07 15:18:35;;;;;;;1.67;1.40;;;;;;;;;;5028421;28;20108;-59
2022/08/07 15:21:04;;;;;;;2.20;1.58;;;;;;;;;;5027792;28;20076;-59
2022/08/07 15:23:32;;;;;;;2.30;1.80;;;;;;;;;;5029200;28;20112;-60